Terminal Aerodrome Forecast
Issued by NWS

Home | Current Version | Previous Version | Text Only | Print | Product List | Glossary On
Versions: 1 2 3 4 5 6 7 8 9 10 11 12 13 14
000
FTUS45 KABQ 242300
TAFFMN
TAF
KFMN 242330Z 2500/2524 28010KT P6SM FEW200
      TEMPO 2500/2502 28010G17KT
     FM250200 VRB05KT P6SM SCT200
     FM250700 09008KT P6SM BKN200
     FM251700 21010KT P6SM BKN200
     FM252100 23015G25KT P6SM SCT120=

USA.gov is the U.S. government's official web portal to all federal, state and local government web resources and services.